EHLW Airport Information

Runway Information
Runway 06 Length 9701 ft width 164 ft
Elevation 4 ft Threshold 847 ft Heading 55
Runway 24 Length 9701 ft Width 164 ft
Elevation 4 ft Threshold 1053 ft Heading 235
Runway 09 Length 6559 ft width 164 ft
Elevation 3 ft Threshold 195 ft Heading 91
Runway 27 Length 6559 ft Width 164 ft
Elevation 4 ft Threshold 0 ft Heading 271
Airport Frequencies
Type APP Name RAPCON NOR Frequency 122.1 MHZ
Type DIR Name ARRIVAL Frequency 122.1 MHZ
Type GND Name GND Frequency 28.155 MHZ
Type TWR Name TWR Frequency 120.7 MHZ
Airport Navaids
Type TACAN Name Leeuwarden Frequency 114700 KHZ
Airport Weather Information & NOTAM
ADDS - METARS form results

(0331 UTC 27 November 2020)
Data provider http://aviationweather.gov/metar/data/
 
METAR text: EHLW 270325Z AUTO 20001KT 0600 FG FEW036 BKN045 02/02 Q1020 RED
Conditions at: EHLW (LEEUWARDEN RNLAF, NL) observed 0325 UTC 27 November 2020
Temperature: 2.0°C (36°F)
Dewpoint: 2.0°C (36°F) [RH = 100%]
Pressure (altimeter): 30.12 inches Hg (1020.0 mb)
Winds: from the SSW (200 degrees) at 1 MPH (1 knots; 0.5 m/s)
Visibility: 0.37 miles (0.60 km)
Ceiling: 4500 feet AGL
Clouds: few clouds at 3600 feet AGL
broken clouds at 4500 feet AGL
Weather: FG  (fog)

METAR text: EHLW 270321Z AUTO 20001KT 0700 FG SCT036 OVC045 02/02 Q1020 RED
Conditions at: EHLW (LEEUWARDEN RNLAF, NL) observed 0321 UTC 27 November 2020
Temperature: 2.0°C (36°F)
Dewpoint: 2.0°C (36°F) [RH = 100%]
Pressure (altimeter): 30.12 inches Hg (1020.0 mb)
Winds: from the SSW (200 degrees) at 1 MPH (1 knots; 0.5 m/s)
Visibility: 0.43 miles (0.69 km)
Ceiling: 4500 feet AGL
Clouds: scattered clouds at 3600 feet AGL
overcast cloud deck at 4500 feet AGL
Weather: FG  (fog)

METAR text: EHLW 270316Z AUTO 20001KT 0800 FG FEW000 BKN036 BKN040 02/02 Q1020 AMB
Conditions at: EHLW (LEEUWARDEN RNLAF, NL) observed 0316 UTC 27 November 2020
Temperature: 2.0°C (36°F)
Dewpoint: 2.0°C (36°F) [RH = 100%]
Pressure (altimeter): 30.12 inches Hg (1020.0 mb)
Winds: from the SSW (200 degrees) at 1 MPH (1 knots; 0.5 m/s)
Visibility: 0.50 miles (0.80 km)
Ceiling: 3600 feet AGL
Clouds: few clouds at 0 feet AGL
broken clouds at 3600 feet AGL
broken clouds at 4000 feet AGL
Weather: FG  (fog)

METAR text: EHLW 270301Z AUTO 20002KT 0700 FG BKN000 OVC045 02/02 Q1020 RED
Conditions at: EHLW (LEEUWARDEN RNLAF, NL) observed 0301 UTC 27 November 2020
Temperature: 2.0°C (36°F)
Dewpoint: 2.0°C (36°F) [RH = 100%]
Pressure (altimeter): 30.12 inches Hg (1020.0 mb)
Winds: from the SSW (200 degrees) at 2 MPH (2 knots; 1.0 m/s)
Visibility: 0.43 miles (0.69 km)
Ceiling: 0 feet AGL
Clouds: broken clouds at 0 feet AGL
overcast cloud deck at 4500 feet AGL
Weather: FG  (fog)

METAR text: EHLW 270255Z AUTO 20002KT 1300 BR BKN000 BKN036 OVC044 01/01 Q1020 RED
Conditions at: EHLW (LEEUWARDEN RNLAF, NL) observed 0255 UTC 27 November 2020
Temperature: 1.0°C (34°F)
Dewpoint: 1.0°C (34°F) [RH = 100%]
Pressure (altimeter): 30.12 inches Hg (1020.0 mb)
Winds: from the SSW (200 degrees) at 2 MPH (2 knots; 1.0 m/s)
Visibility: 0.81 miles (1.30 km)
Ceiling: 0 feet AGL
Clouds: broken clouds at 0 feet AGL
broken clouds at 3600 feet AGL
overcast cloud deck at 4400 feet AGL
Weather: BR  (mist)

Forecast for: EHLW (LEEUWARDEN RNLAF, NL)
Text: TAF EHLW 270118Z 2702/2714 VRB02KT 6000 BR MIFG NSC
Forecast period: 0200 to 0800 UTC 27 November 2020
Forecast type: FROM: standard forecast or significant change
Winds: variable direction winds at 2 MPH (2 knots; 1.0 m/s)
Visibility: 4 miles (6 km)
Ceiling: unknown
Clouds: missing
Weather: BR MIFG  (mist, shallow fog)
Text: TEMPO 2702/2709 3000 BR MIFG
Forecast period: 0200 to 0900 UTC 27 November 2020
Forecast type: TEMPORARY: The following changes expected for less than half the time period
Visibility: 1.86 miles (2.99 km)
Ceiling: unknown
Clouds: missing
Weather: BR MIFG  (mist, shallow fog)
Text: PROB40
Forecast period: 0200 to 0900 UTC 27 November 2020
Forecast type: TEMPORARY: The following changes expected for less than half the time period
Visibility: 0.31 miles (0.50 km)
Ceiling: unknown
Clouds: missing
Weather: BCFG  (patches of fog)
Text: TEMPO 2702/2709 0500 BCFG
Forecast period: 0800 to 1000 UTC 27 November 2020
Forecast type: BECOMING: Conditions expected to become as follows by 1000 UTC 27 November 2020
Winds: from the ESE (110 degrees) at 6 MPH (5 knots; 2.6 m/s)
Visibility: 3 miles (5 km)
Ceiling: unknown
Clouds: missing
Weather: NSW  (no significant weather)
Text: BECMG 2708/2710 11005KT 5000 NSW
Forecast period: 1000 to 1400 UTC 27 November 2020
Forecast type: BECOMING: Conditions expected to become as follows by 1200 UTC 27 November 2020
Winds: from the ESE (110 degrees) at 6 MPH (5 knots; 2.6 m/s)
Visibility: 3 miles (5 km)
Ceiling: 1500 feet AGL
Clouds: scattered clouds at 1000 feet AGL
broken clouds at 1500 feet AGL
Weather: NSW  (no significant weather)
Text: BECMG 2710/2712 SCT010 BKN015
Forecast period: 1000 to 1400 UTC 27 November 2020
Forecast type: TEMPORARY: The following changes expected for less than half the time period
Visibility: 2.17 miles (3.49 km)
Ceiling: 500 feet AGL
Clouds: few clouds at 300 feet AGL
broken clouds at 500 feet AGL
overcast cloud deck at 700 feet AGL
Weather: -DZ BR  (light drizzle, mist)
Text: TEMPO 2710/2714 3500 -DZ BR FEW003 BKN005 OVC007
Forecast period: 1100 to 1400 UTC 27 November 2020
Forecast type: TEMPORARY: The following changes expected for less than half the time period
Visibility: 1.24 miles (2.00 km)
Ceiling: 500 feet AGL
Clouds: scattered clouds at 300 feet AGL
broken clouds at 500 feet AGL
Weather: DZ RA  (moderate drizzle, moderate rain)